sensor_id;sensor_type;location;lat;lon;timestamp;temperature;humidity
13074;DHT22;6603;47.066;15.396;2023-02-19T00:00:59;2.20;99.90
13074;DHT22;6603;47.066;15.396;2023-02-19T00:03:28;2.20;99.90
13074;DHT22;6603;47.066;15.396;2023-02-19T00:05:54;2.30;99.90
13074;DHT22;6603;47.066;15.396;2023-02-19T00:08:20;2.20;99.90
13074;DHT22;6603;47.066;15.396;2023-02-19T00:10:45;2.20;99.90
13074;DHT22;6603;47.066;15.396;2023-02-19T00:13:11;2.10;99.90
13074;DHT22;6603;47.066;15.396;2023-02-19T00:15:37;2.10;99.90
13074;DHT22;6603;47.066;15.396;2023-02-19T00:18:03;2.10;99.90
13074;DHT22;6603;47.066;15.396;2023-02-19T00:20:29;2.10;99.90
13074;DHT22;6603;47.066;15.396;2023-02-19T00:22:55;2.10;99.90
13074;DHT22;6603;47.066;15.396;2023-02-19T00:25:21;2.00;99.90
13074;DHT22;6603;47.066;15.396;2023-02-19T00:27:47;2.00;99.90
13074;DHT22;6603;47.066;15.396;2023-02-19T00:30:13;2.00;99.90
13074;DHT22;6603;47.066;15.396;2023-02-19T00:32:39;2.00;99.90
13074;DHT22;6603;47.066;15.396;2023-02-19T00:35:05;2.00;99.90
13074;DHT22;6603;47.066;15.396;2023-02-19T00:37:30;2.00;99.90
13074;DHT22;6603;47.066;15.396;2023-02-19T00:39:56;1.90;99.90
13074;DHT22;6603;47.066;15.396;2023-02-19T00:42:22;1.90;99.90
13074;DHT22;6603;47.066;15.396;2023-02-19T00:44:48;1.90;99.90
13074;DHT22;6603;47.066;15.396;2023-02-19T00:47:14;1.90;99.90
13074;DHT22;6603;47.066;15.396;2023-02-19T00:49:40;1.90;99.90
13074;DHT22;6603;47.066;15.396;2023-02-19T00:52:06;2.00;99.90
13074;DHT22;6603;47.066;15.396;2023-02-19T00:54:32;2.00;99.90
13074;DHT22;6603;47.066;15.396;2023-02-19T00:56:57;2.00;99.90
13074;DHT22;6603;47.066;15.396;2023-02-19T00:59:23;1.90;99.90
13074;DHT22;6603;47.066;15.396;2023-02-19T01:01:49;1.90;99.90
13074;DHT22;6603;47.066;15.396;2023-02-19T01:04:15;1.90;99.90
13074;DHT22;6603;47.066;15.396;2023-02-19T01:06:42;2.10;99.90
13074;DHT22;6603;47.066;15.396;2023-02-19T01:09:08;2.00;99.90
13074;DHT22;6603;47.066;15.396;2023-02-19T01:11:34;2.00;99.90
13074;DHT22;6603;47.066;15.396;2023-02-19T01:14:00;2.00;99.90
13074;DHT22;6603;47.066;15.396;2023-02-19T01:16:27;2.10;99.90
13074;DHT22;6603;47.066;15.396;2023-02-19T01:18:53;2.00;99.90
13074;DHT22;6603;47.066;15.396;2023-02-19T01:21:22;2.00;99.90
13074;DHT22;6603;47.066;15.396;2023-02-19T01:23:49;2.00;99.90
13074;DHT22;6603;47.066;15.396;2023-02-19T01:26:28;1.90;99.90
13074;DHT22;6603;47.066;15.396;2023-02-19T01:28:54;1.90;99.90
13074;DHT22;6603;47.066;15.396;2023-02-19T01:31:22;1.80;99.90
13074;DHT22;6603;47.066;15.396;2023-02-19T01:33:57;1.90;99.90
13074;DHT22;6603;47.066;15.396;2023-02-19T01:36:23;1.90;99.90
13074;DHT22;6603;47.066;15.396;2023-02-19T01:38:49;1.90;99.90
13074;DHT22;6603;47.066;15.396;2023-02-19T01:41:19;1.90;99.90
13074;DHT22;6603;47.066;15.396;2023-02-19T01:46:31;1.90;99.90
13074;DHT22;6603;47.066;15.396;2023-02-19T01:49:01;1.90;99.90
13074;DHT22;6603;47.066;15.396;2023-02-19T01:51:30;1.90;99.90
13074;DHT22;6603;47.066;15.396;2023-02-19T01:53:59;1.90;99.90
13074;DHT22;6603;47.066;15.396;2023-02-19T01:56:27;1.90;99.90
13074;DHT22;6603;47.066;15.396;2023-02-19T01:58:55;1.90;99.90
13074;DHT22;6603;47.066;15.396;2023-02-19T02:01:22;1.90;99.90
13074;DHT22;6603;47.066;15.396;2023-02-19T02:03:49;1.90;99.90
13074;DHT22;6603;47.066;15.396;2023-02-19T02:08:42;2.00;99.90
13074;DHT22;6603;47.066;15.396;2023-02-19T02:11:27;2.00;99.90
13074;DHT22;6603;47.066;15.396;2023-02-19T02:13:53;2.00;99.90
13074;DHT22;6603;47.066;15.396;2023-02-19T02:24:40;2.20;99.90
13074;DHT22;6603;47.066;15.396;2023-02-19T02:27:34;2.20;99.90
13074;DHT22;6603;47.066;15.396;2023-02-19T02:32:51;2.20;99.90
13074;DHT22;6603;47.066;15.396;2023-02-19T02:35:22;2.20;99.90
13074;DHT22;6603;47.066;15.396;2023-02-19T02:37:50;2.30;99.90
13074;DHT22;6603;47.066;15.396;2023-02-19T02:40:18;2.20;99.90
13074;DHT22;6603;47.066;15.396;2023-02-19T02:42:44;2.20;99.90
13074;DHT22;6603;47.066;15.396;2023-02-19T02:45:31;2.30;99.90
13074;DHT22;6603;47.066;15.396;2023-02-19T02:51:18;2.20;99.90
13074;DHT22;6603;47.066;15.396;2023-02-19T02:53:50;2.20;99.90
13074;DHT22;6603;47.066;15.396;2023-02-19T02:56:35;2.20;99.90
13074;DHT22;6603;47.066;15.396;2023-02-19T02:59:06;2.20;99.90
13074;DHT22;6603;47.066;15.396;2023-02-19T03:07:07;2.20;99.90
13074;DHT22;6603;47.066;15.396;2023-02-19T03:09:40;2.20;99.90
13074;DHT22;6603;47.066;15.396;2023-02-19T03:12:12;2.20;99.90
13074;DHT22;6603;47.066;15.396;2023-02-19T03:15:02;2.30;99.90
13074;DHT22;6603;47.066;15.396;2023-02-19T03:17:53;2.40;99.90
13074;DHT22;6603;47.066;15.396;2023-02-19T03:20:44;2.50;99.90
13074;DHT22;6603;47.066;15.396;2023-02-19T03:23:12;2.40;99.90
13074;DHT22;6603;47.066;15.396;2023-02-19T03:25:40;2.40;99.90
13074;DHT22;6603;47.066;15.396;2023-02-19T03:28:28;2.30;99.90
13074;DHT22;6603;47.066;15.396;2023-02-19T03:31:17;2.30;99.90
13074;DHT22;6603;47.066;15.396;2023-02-19T03:33:47;2.50;99.90
13074;DHT22;6603;47.066;15.396;2023-02-19T03:36:15;2.40;99.90
13074;DHT22;6603;47.066;15.396;2023-02-19T03:42:01;2.30;99.90
13074;DHT22;6603;47.066;15.396;2023-02-19T03:47:31;2.30;99.90
13074;DHT22;6603;47.066;15.396;2023-02-19T03:50:00;2.20;99.90
13074;DHT22;6603;47.066;15.396;2023-02-19T03:54:56;2.20;99.90
13074;DHT22;6603;47.066;15.396;2023-02-19T03:59:57;2.10;99.90
13074;DHT22;6603;47.066;15.396;2023-02-19T04:02:28;2.10;99.90
13074;DHT22;6603;47.066;15.396;2023-02-19T04:05:18;2.00;99.90
13074;DHT22;6603;47.066;15.396;2023-02-19T04:07:48;2.10;99.90
13074;DHT22;6603;47.066;15.396;2023-02-19T04:10:16;2.00;99.90
13074;DHT22;6603;47.066;15.396;2023-02-19T04:12:49;2.00;99.90
13074;DHT22;6603;47.066;15.396;2023-02-19T04:15:20;1.90;99.90
13074;DHT22;6603;47.066;15.396;2023-02-19T04:18:05;1.90;99.90
13074;DHT22;6603;47.066;15.396;2023-02-19T04:20:38;1.90;99.90
13074;DHT22;6603;47.066;15.396;2023-02-19T04:23:06;1.90;99.90
13074;DHT22;6603;47.066;15.396;2023-02-19T04:25:32;1.90;99.90
13074;DHT22;6603;47.066;15.396;2023-02-19T04:28:01;1.90;99.90
13074;DHT22;6603;47.066;15.396;2023-02-19T04:30:27;1.90;99.90
13074;DHT22;6603;47.066;15.396;2023-02-19T04:32:53;1.80;99.90
13074;DHT22;6603;47.066;15.396;2023-02-19T04:35:19;1.90;99.90
13074;DHT22;6603;47.066;15.396;2023-02-19T04:37:45;1.90;99.90
13074;DHT22;6603;47.066;15.396;2023-02-19T04:40:10;1.90;99.90
13074;DHT22;6603;47.066;15.396;2023-02-19T04:42:36;1.90;99.90
13074;DHT22;6603;47.066;15.396;2023-02-19T04:45:03;1.80;99.90
13074;DHT22;6603;47.066;15.396;2023-02-19T04:47:32;1.70;99.90
13074;DHT22;6603;47.066;15.396;2023-02-19T04:49:58;1.70;99.90
13074;DHT22;6603;47.066;15.396;2023-02-19T04:52:24;1.70;99.90
13074;DHT22;6603;47.066;15.396;2023-02-19T04:54:50;1.60;99.90
13074;DHT22;6603;47.066;15.396;2023-02-19T04:57:16;1.60;99.90
13074;DHT22;6603;47.066;15.396;2023-02-19T04:59:42;1.50;99.90
13074;DHT22;6603;47.066;15.396;2023-02-19T05:02:07;1.50;99.90
13074;DHT22;6603;47.066;15.396;2023-02-19T05:04:33;1.60;99.90
13074;DHT22;6603;47.066;15.396;2023-02-19T05:06:59;1.60;99.90
13074;DHT22;6603;47.066;15.396;2023-02-19T05:09:25;1.70;99.90
13074;DHT22;6603;47.066;15.396;2023-02-19T05:11:51;1.60;99.90
13074;DHT22;6603;47.066;15.396;2023-02-19T05:14:17;1.70;99.90
13074;DHT22;6603;47.066;15.396;2023-02-19T05:33:10;2.40;99.90
13074;DHT22;6603;47.066;15.396;2023-02-19T05:35:44;2.40;99.90
13074;DHT22;6603;47.066;15.396;2023-02-19T05:38:10;2.40;99.90
13074;DHT22;6603;47.066;15.396;2023-02-19T05:40:37;2.50;99.90
13074;DHT22;6603;47.066;15.396;2023-02-19T05:43:04;2.60;99.90
13074;DHT22;6603;47.066;15.396;2023-02-19T05:45:30;2.60;99.90
13074;DHT22;6603;47.066;15.396;2023-02-19T05:47:56;2.70;99.90
13074;DHT22;6603;47.066;15.396;2023-02-19T05:50:22;2.70;99.90
13074;DHT22;6603;47.066;15.396;2023-02-19T05:52:49;2.70;99.90
13074;DHT22;6603;47.066;15.396;2023-02-19T05:55:15;2.80;99.90
13074;DHT22;6603;47.066;15.396;2023-02-19T05:57:43;2.80;99.90
13074;DHT22;6603;47.066;15.396;2023-02-19T06:00:14;2.80;99.90
13074;DHT22;6603;47.066;15.396;2023-02-19T06:02:42;2.90;99.90
13074;DHT22;6603;47.066;15.396;2023-02-19T06:05:08;2.90;99.90
13074;DHT22;6603;47.066;15.396;2023-02-19T06:07:35;2.90;99.90
13074;DHT22;6603;47.066;15.396;2023-02-19T06:10:01;2.90;99.90
13074;DHT22;6603;47.066;15.396;2023-02-19T06:12:27;2.90;99.90
13074;DHT22;6603;47.066;15.396;2023-02-19T06:14:53;2.90;99.90
13074;DHT22;6603;47.066;15.396;2023-02-19T06:17:19;2.90;99.90
13074;DHT22;6603;47.066;15.396;2023-02-19T06:19:45;3.00;99.90
13074;DHT22;6603;47.066;15.396;2023-02-19T06:22:13;2.90;99.90
13074;DHT22;6603;47.066;15.396;2023-02-19T06:24:39;3.00;99.90
13074;DHT22;6603;47.066;15.396;2023-02-19T06:27:06;3.10;99.90
13074;DHT22;6603;47.066;15.396;2023-02-19T06:29:32;3.10;99.90
13074;DHT22;6603;47.066;15.396;2023-02-19T06:51:40;3.40;99.90
13074;DHT22;6603;47.066;15.396;2023-02-19T06:54:06;3.50;99.90
13074;DHT22;6603;47.066;15.396;2023-02-19T06:56:45;3.50;99.90
13074;DHT22;6603;47.066;15.396;2023-02-19T06:59:15;3.60;99.90
13074;DHT22;6603;47.066;15.396;2023-02-19T07:01:47;3.70;99.90
13074;DHT22;6603;47.066;15.396;2023-02-19T07:04:13;3.70;99.90
13074;DHT22;6603;47.066;15.396;2023-02-19T07:06:39;3.80;99.90
13074;DHT22;6603;47.066;15.396;2023-02-19T07:09:06;3.80;99.90
13074;DHT22;6603;47.066;15.396;2023-02-19T07:11:42;3.90;99.90
13074;DHT22;6603;47.066;15.396;2023-02-19T07:14:14;4.00;99.90
13074;DHT22;6603;47.066;15.396;2023-02-19T07:16:40;4.10;99.90
13074;DHT22;6603;47.066;15.396;2023-02-19T07:19:06;4.10;99.90
13074;DHT22;6603;47.066;15.396;2023-02-19T07:21:32;4.20;99.90
13074;DHT22;6603;47.066;15.396;2023-02-19T07:24:02;4.20;99.90
13074;DHT22;6603;47.066;15.396;2023-02-19T07:26:29;4.30;99.90
13074;DHT22;6603;47.066;15.396;2023-02-19T07:28:55;4.30;99.90
13074;DHT22;6603;47.066;15.396;2023-02-19T07:31:23;4.30;99.90
13074;DHT22;6603;47.066;15.396;2023-02-19T07:33:49;4.40;99.90
13074;DHT22;6603;47.066;15.396;2023-02-19T07:36:16;4.40;99.90
13074;DHT22;6603;47.066;15.396;2023-02-19T07:38:43;4.50;99.90
13074;DHT22;6603;47.066;15.396;2023-02-19T07:41:09;4.60;99.90
13074;DHT22;6603;47.066;15.396;2023-02-19T07:43:37;4.70;99.90
13074;DHT22;6603;47.066;15.396;2023-02-19T07:46:12;4.70;99.90
13074;DHT22;6603;47.066;15.396;2023-02-19T07:48:39;4.80;99.90
13074;DHT22;6603;47.066;15.396;2023-02-19T07:51:07;4.80;99.90
13074;DHT22;6603;47.066;15.396;2023-02-19T07:53:35;5.00;99.90
13074;DHT22;6603;47.066;15.396;2023-02-19T07:56:06;5.10;99.90
13074;DHT22;6603;47.066;15.396;2023-02-19T07:58:32;5.20;99.90
13074;DHT22;6603;47.066;15.396;2023-02-19T08:01:28;5.30;99.90
13074;DHT22;6603;47.066;15.396;2023-02-19T08:04:14;5.50;99.90
13074;DHT22;6603;47.066;15.396;2023-02-19T08:06:40;5.50;99.90
13074;DHT22;6603;47.066;15.396;2023-02-19T08:09:06;5.70;95.10
13074;DHT22;6603;47.066;15.396;2023-02-19T08:11:32;5.70;91.30
13074;DHT22;6603;47.066;15.396;2023-02-19T08:14:17;5.70;74.70
13074;DHT22;6603;47.066;15.396;2023-02-19T08:16:49;5.70;80.10
13074;DHT22;6603;47.066;15.396;2023-02-19T08:19:15;5.80;67.70
13074;DHT22;6603;47.066;15.396;2023-02-19T08:21:41;5.80;46.60
13074;DHT22;6603;47.066;15.396;2023-02-19T08:24:07;5.90;42.90
13074;DHT22;6603;47.066;15.396;2023-02-19T08:26:33;5.90;42.60
13074;DHT22;6603;47.066;15.396;2023-02-19T08:31:39;5.90;46.20
13074;DHT22;6603;47.066;15.396;2023-02-19T08:34:05;5.80;45.30
13074;DHT22;6603;47.066;15.396;2023-02-19T08:36:30;5.80;30.00
13074;DHT22;6603;47.066;15.396;2023-02-19T08:38:56;5.70;37.20
13074;DHT22;6603;47.066;15.396;2023-02-19T08:41:22;5.60;44.70
13074;DHT22;6603;47.066;15.396;2023-02-19T08:43:48;5.60;37.90
13074;DHT22;6603;47.066;15.396;2023-02-19T08:46:14;5.60;38.40
13074;DHT22;6603;47.066;15.396;2023-02-19T08:48:40;5.60;51.10
13074;DHT22;6603;47.066;15.396;2023-02-19T08:51:08;5.60;55.30
13074;DHT22;6603;47.066;15.396;2023-02-19T08:53:36;5.60;56.30
13074;DHT22;6603;47.066;15.396;2023-02-19T08:56:08;5.60;60.50
13074;DHT22;6603;47.066;15.396;2023-02-19T08:58:34;5.60;48.20
13074;DHT22;6603;47.066;15.396;2023-02-19T09:01:00;5.60;58.90
13074;DHT22;6603;47.066;15.396;2023-02-19T09:03:26;5.60;76.00
13074;DHT22;6603;47.066;15.396;2023-02-19T09:05:52;5.60;82.90
13074;DHT22;6603;47.066;15.396;2023-02-19T09:08:17;5.70;85.10
13074;DHT22;6603;47.066;15.396;2023-02-19T09:10:44;5.80;85.50
13074;DHT22;6603;47.066;15.396;2023-02-19T09:13:09;5.90;81.40
13074;DHT22;6603;47.066;15.396;2023-02-19T09:15:37;6.10;62.00
13074;DHT22;6603;47.066;15.396;2023-02-19T09:18:03;6.30;34.30
13074;DHT22;6603;47.066;15.396;2023-02-19T09:20:28;6.40;1.00
13074;DHT22;6603;47.066;15.396;2023-02-19T09:22:58;6.50;1.00
13074;DHT22;6603;47.066;15.396;2023-02-19T09:25:24;6.70;1.00
13074;DHT22;6603;47.066;15.396;2023-02-19T09:27:54;6.90;1.00
13074;DHT22;6603;47.066;15.396;2023-02-19T09:30:20;7.20;1.00
13074;DHT22;6603;47.066;15.396;2023-02-19T09:32:45;7.20;1.00
13074;DHT22;6603;47.066;15.396;2023-02-19T09:35:11;7.30;1.00
13074;DHT22;6603;47.066;15.396;2023-02-19T09:37:37;7.30;1.00
13074;DHT22;6603;47.066;15.396;2023-02-19T09:40:03;7.40;1.00
13074;DHT22;6603;47.066;15.396;2023-02-19T09:42:30;7.50;1.00
13074;DHT22;6603;47.066;15.396;2023-02-19T09:44:59;7.50;1.00
13074;DHT22;6603;47.066;15.396;2023-02-19T09:47:30;7.70;1.00
13074;DHT22;6603;47.066;15.396;2023-02-19T09:50:05;8.00;1.00
13074;DHT22;6603;47.066;15.396;2023-02-19T09:52:39;8.20;1.00
13074;DHT22;6603;47.066;15.396;2023-02-19T09:57:39;8.60;1.00
13074;DHT22;6603;47.066;15.396;2023-02-19T10:00:29;8.60;1.00
13074;DHT22;6603;47.066;15.396;2023-02-19T10:03:26;8.90;23.30
13074;DHT22;6603;47.066;15.396;2023-02-19T10:06:05;9.10;1.00
13074;DHT22;6603;47.066;15.396;2023-02-19T10:08:33;9.10;1.00
13074;DHT22;6603;47.066;15.396;2023-02-19T10:11:00;9.20;1.00
13074;DHT22;6603;47.066;15.396;2023-02-19T10:13:49;9.40;1.00
13074;DHT22;6603;47.066;15.396;2023-02-19T10:16:21;9.60;1.00
13074;DHT22;6603;47.066;15.396;2023-02-19T10:18:49;9.90;1.00
13074;DHT22;6603;47.066;15.396;2023-02-19T10:21:21;10.10;99.90
13074;DHT22;6603;47.066;15.396;2023-02-19T10:23:50;10.40;50.00
13074;DHT22;6603;47.066;15.396;2023-02-19T10:26:18;10.30;99.90
13074;DHT22;6603;47.066;15.396;2023-02-19T10:28:44;10.50;99.90
13074;DHT22;6603;47.066;15.396;2023-02-19T10:31:22;10.70;99.90
13074;DHT22;6603;47.066;15.396;2023-02-19T10:36:30;11.10;1.00
13074;DHT22;6603;47.066;15.396;2023-02-19T10:38:57;11.40;99.90
13074;DHT22;6603;47.066;15.396;2023-02-19T10:41:24;11.70;1.00
13074;DHT22;6603;47.066;15.396;2023-02-19T10:44:25;11.80;99.90
13074;DHT22;6603;47.066;15.396;2023-02-19T10:46:54;11.90;99.90
13074;DHT22;6603;47.066;15.396;2023-02-19T10:49:27;12.00;99.90
13074;DHT22;6603;47.066;15.396;2023-02-19T10:52:00;12.10;99.90
13074;DHT22;6603;47.066;15.396;2023-02-19T10:54:32;12.30;27.70
13074;DHT22;6603;47.066;15.396;2023-02-19T10:59:52;12.60;99.90
13074;DHT22;6603;47.066;15.396;2023-02-19T11:02:20;12.90;1.00
13074;DHT22;6603;47.066;15.396;2023-02-19T11:05:08;13.10;1.00
13074;DHT22;6603;47.066;15.396;2023-02-19T11:07:52;13.20;1.00
13074;DHT22;6603;47.066;15.396;2023-02-19T11:12:54;13.70;1.00
13074;DHT22;6603;47.066;15.396;2023-02-19T11:15:34;13.80;1.00
13074;DHT22;6603;47.066;15.396;2023-02-19T11:18:20;14.00;99.90
13074;DHT22;6603;47.066;15.396;2023-02-19T11:23:29;13.80;99.90
13074;DHT22;6603;47.066;15.396;2023-02-19T11:25:59;14.20;99.90
13074;DHT22;6603;47.066;15.396;2023-02-19T11:28:39;14.40;99.90
13074;DHT22;6603;47.066;15.396;2023-02-19T11:33:58;14.60;99.90
13074;DHT22;6603;47.066;15.396;2023-02-19T11:38:51;14.80;99.90
13074;DHT22;6603;47.066;15.396;2023-02-19T11:41:32;15.00;98.00
13074;DHT22;6603;47.066;15.396;2023-02-19T11:50:13;14.90;1.00
13074;DHT22;6603;47.066;15.396;2023-02-19T12:00:59;16.40;1.00
13074;DHT22;6603;47.066;15.396;2023-02-19T12:03:35;16.40;1.00
13074;DHT22;6603;47.066;15.396;2023-02-19T12:11:57;17.00;1.00
13074;DHT22;6603;47.066;15.396;2023-02-19T12:36:05;18.00;1.00
13074;DHT22;6603;47.066;15.396;2023-02-19T12:39:18;17.90;1.00
13074;DHT22;6603;47.066;15.396;2023-02-19T12:44:37;17.80;1.00
13074;DHT22;6603;47.066;15.396;2023-02-19T12:47:04;17.50;1.00
13074;DHT22;6603;47.066;15.396;2023-02-19T12:49:41;17.40;1.00
13074;DHT22;6603;47.066;15.396;2023-02-19T12:52:21;17.30;1.00
13074;DHT22;6603;47.066;15.396;2023-02-19T12:54:53;17.30;1.00
13074;DHT22;6603;47.066;15.396;2023-02-19T12:57:32;17.30;1.00
13074;DHT22;6603;47.066;15.396;2023-02-19T13:05:43;16.30;1.00
13074;DHT22;6603;47.066;15.396;2023-02-19T13:11:31;15.80;1.00
13074;DHT22;6603;47.066;15.396;2023-02-19T13:16:49;15.30;1.00
13074;DHT22;6603;47.066;15.396;2023-02-19T13:19:17;15.20;1.00
13074;DHT22;6603;47.066;15.396;2023-02-19T13:21:44;15.20;1.00
13074;DHT22;6603;47.066;15.396;2023-02-19T13:24:33;15.60;1.00
13074;DHT22;6603;47.066;15.396;2023-02-19T13:27:07;15.60;1.00
13074;DHT22;6603;47.066;15.396;2023-02-19T13:32:24;15.20;1.00
13074;DHT22;6603;47.066;15.396;2023-02-19T13:37:52;15.60;1.00
13074;DHT22;6603;47.066;15.396;2023-02-19T13:40:33;15.60;1.00
13074;DHT22;6603;47.066;15.396;2023-02-19T13:43:05;15.30;1.00
13074;DHT22;6603;47.066;15.396;2023-02-19T13:48:31;14.70;1.00
13074;DHT22;6603;47.066;15.396;2023-02-19T14:14:50;14.80;1.00
13074;DHT22;6603;47.066;15.396;2023-02-19T14:17:39;14.70;1.00
13074;DHT22;6603;47.066;15.396;2023-02-19T14:22:57;14.80;1.00
13074;DHT22;6603;47.066;15.396;2023-02-19T14:25:39;15.00;1.00
13074;DHT22;6603;47.066;15.396;2023-02-19T14:33:17;14.80;1.00
13074;DHT22;6603;47.066;15.396;2023-02-19T14:35:46;14.70;1.00
13074;DHT22;6603;47.066;15.396;2023-02-19T14:38:17;14.70;1.00
13074;DHT22;6603;47.066;15.396;2023-02-19T14:40:46;14.60;1.00
13074;DHT22;6603;47.066;15.396;2023-02-19T14:43:17;14.60;1.00
13074;DHT22;6603;47.066;15.396;2023-02-19T14:45:48;14.50;1.00
13074;DHT22;6603;47.066;15.396;2023-02-19T14:48:25;14.40;1.00
13074;DHT22;6603;47.066;15.396;2023-02-19T14:50:59;14.40;1.00
13074;DHT22;6603;47.066;15.396;2023-02-19T14:53:27;14.30;1.00
13074;DHT22;6603;47.066;15.396;2023-02-19T14:55:55;14.20;1.00
13074;DHT22;6603;47.066;15.396;2023-02-19T14:58:32;14.20;1.00
13074;DHT22;6603;47.066;15.396;2023-02-19T15:00:58;14.10;1.00
13074;DHT22;6603;47.066;15.396;2023-02-19T15:06:05;13.90;1.00
13074;DHT22;6603;47.066;15.396;2023-02-19T15:08:43;13.90;1.00
13074;DHT22;6603;47.066;15.396;2023-02-19T15:11:16;13.80;1.00
13074;DHT22;6603;47.066;15.396;2023-02-19T15:13:51;13.80;1.00
13074;DHT22;6603;47.066;15.396;2023-02-19T15:16:19;13.70;1.00
13074;DHT22;6603;47.066;15.396;2023-02-19T15:18:47;13.60;1.00
13074;DHT22;6603;47.066;15.396;2023-02-19T15:21:28;13.50;1.00
13074;DHT22;6603;47.066;15.396;2023-02-19T15:24:03;13.40;1.00
13074;DHT22;6603;47.066;15.396;2023-02-19T15:26:36;13.40;1.00
13074;DHT22;6603;47.066;15.396;2023-02-19T15:29:13;13.30;1.00
13074;DHT22;6603;47.066;15.396;2023-02-19T15:34:20;13.20;1.00
13074;DHT22;6603;47.066;15.396;2023-02-19T15:36:48;13.10;1.00
13074;DHT22;6603;47.066;15.396;2023-02-19T15:39:23;13.00;1.00
13074;DHT22;6603;47.066;15.396;2023-02-19T15:41:56;13.00;1.00
13074;DHT22;6603;47.066;15.396;2023-02-19T15:44:31;13.00;1.00
13074;DHT22;6603;47.066;15.396;2023-02-19T15:47:12;12.90;1.00
13074;DHT22;6603;47.066;15.396;2023-02-19T15:49:45;12.70;1.00
13074;DHT22;6603;47.066;15.396;2023-02-19T15:52:25;12.60;1.00
13074;DHT22;6603;47.066;15.396;2023-02-19T15:54:58;12.60;1.00
13074;DHT22;6603;47.066;15.396;2023-02-19T15:57:31;12.50;1.00
13074;DHT22;6603;47.066;15.396;2023-02-19T16:00:05;12.40;1.00
13074;DHT22;6603;47.066;15.396;2023-02-19T16:02:36;12.40;1.00
13074;DHT22;6603;47.066;15.396;2023-02-19T16:05:11;12.40;1.00
13074;DHT22;6603;47.066;15.396;2023-02-19T16:07:37;12.30;1.00
13074;DHT22;6603;47.066;15.396;2023-02-19T16:10:23;12.20;1.00
13074;DHT22;6603;47.066;15.396;2023-02-19T16:13:00;12.20;1.00
13074;DHT22;6603;47.066;15.396;2023-02-19T16:15:27;12.00;1.00
13074;DHT22;6603;47.066;15.396;2023-02-19T16:17:54;11.90;1.00
13074;DHT22;6603;47.066;15.396;2023-02-19T16:20:32;11.90;1.00
13074;DHT22;6603;47.066;15.396;2023-02-19T16:23:12;11.80;1.00
13074;DHT22;6603;47.066;15.396;2023-02-19T16:25:41;12.00;1.00
13074;DHT22;6603;47.066;15.396;2023-02-19T16:30:36;11.90;1.00
13074;DHT22;6603;47.066;15.396;2023-02-19T16:35:48;11.70;1.00
13074;DHT22;6603;47.066;15.396;2023-02-19T16:38:15;11.40;1.00
13074;DHT22;6603;47.066;15.396;2023-02-19T16:45:45;11.40;1.00
13074;DHT22;6603;47.066;15.396;2023-02-19T16:48:12;11.20;1.00
13074;DHT22;6603;47.066;15.396;2023-02-19T16:50:39;11.40;1.00
13074;DHT22;6603;47.066;15.396;2023-02-19T16:53:14;11.40;1.00
13074;DHT22;6603;47.066;15.396;2023-02-19T16:55:41;11.20;1.00
13074;DHT22;6603;47.066;15.396;2023-02-19T16:58:07;11.20;1.00
13074;DHT22;6603;47.066;15.396;2023-02-19T17:00:33;11.30;1.00
13074;DHT22;6603;47.066;15.396;2023-02-19T17:03:02;11.30;1.00
13074;DHT22;6603;47.066;15.396;2023-02-19T17:05:34;11.20;1.00
13074;DHT22;6603;47.066;15.396;2023-02-19T17:10:46;11.30;1.00
13074;DHT22;6603;47.066;15.396;2023-02-19T17:13:11;11.40;1.00
13074;DHT22;6603;47.066;15.396;2023-02-19T17:15:37;11.40;1.00
13074;DHT22;6603;47.066;15.396;2023-02-19T17:18:03;11.20;1.00
13074;DHT22;6603;47.066;15.396;2023-02-19T17:20:29;11.30;1.00
13074;DHT22;6603;47.066;15.396;2023-02-19T17:22:56;11.20;1.00
13074;DHT22;6603;47.066;15.396;2023-02-19T17:25:22;11.20;1.00
13074;DHT22;6603;47.066;15.396;2023-02-19T17:27:48;11.20;1.00
13074;DHT22;6603;47.066;15.396;2023-02-19T17:30:32;11.30;1.00
13074;DHT22;6603;47.066;15.396;2023-02-19T17:32:58;11.30;1.00
13074;DHT22;6603;47.066;15.396;2023-02-19T17:35:24;11.40;1.00
13074;DHT22;6603;47.066;15.396;2023-02-19T17:37:50;11.40;1.00
13074;DHT22;6603;47.066;15.396;2023-02-19T17:40:29;11.40;1.00
13074;DHT22;6603;47.066;15.396;2023-02-19T17:42:56;11.30;1.00
13074;DHT22;6603;47.066;15.396;2023-02-19T17:45:21;11.30;1.00
13074;DHT22;6603;47.066;15.396;2023-02-19T17:47:48;11.20;1.00
13074;DHT22;6603;47.066;15.396;2023-02-19T17:50:18;11.20;1.00
13074;DHT22;6603;47.066;15.396;2023-02-19T17:52:45;11.20;1.00
13074;DHT22;6603;47.066;15.396;2023-02-19T17:55:12;11.20;1.00
13074;DHT22;6603;47.066;15.396;2023-02-19T17:57:40;11.40;1.00
13074;DHT22;6603;47.066;15.396;2023-02-19T18:00:06;11.50;1.00
13074;DHT22;6603;47.066;15.396;2023-02-19T18:02:32;11.50;1.00
13074;DHT22;6603;47.066;15.396;2023-02-19T18:04:58;11.60;1.00
13074;DHT22;6603;47.066;15.396;2023-02-19T18:07:23;11.50;1.00
13074;DHT22;6603;47.066;15.396;2023-02-19T18:09:49;11.60;1.00
13074;DHT22;6603;47.066;15.396;2023-02-19T18:12:15;11.50;1.00
13074;DHT22;6603;47.066;15.396;2023-02-19T18:14:40;11.80;1.00
13074;DHT22;6603;47.066;15.396;2023-02-19T18:17:09;11.80;1.00
13074;DHT22;6603;47.066;15.396;2023-02-19T18:19:34;11.70;1.00
13074;DHT22;6603;47.066;15.396;2023-02-19T18:22:00;11.70;1.00
13074;DHT22;6603;47.066;15.396;2023-02-19T18:24:26;11.60;1.00
13074;DHT22;6603;47.066;15.396;2023-02-19T18:26:52;11.50;1.00
13074;DHT22;6603;47.066;15.396;2023-02-19T18:29:17;11.40;1.00
13074;DHT22;6603;47.066;15.396;2023-02-19T18:31:44;11.40;1.00
13074;DHT22;6603;47.066;15.396;2023-02-19T18:34:17;11.30;1.00
13074;DHT22;6603;47.066;15.396;2023-02-19T18:36:47;11.30;1.00
13074;DHT22;6603;47.066;15.396;2023-02-19T18:39:14;11.50;1.00
13074;DHT22;6603;47.066;15.396;2023-02-19T18:41:40;11.50;1.00
13074;DHT22;6603;47.066;15.396;2023-02-19T18:44:06;11.60;1.00
13074;DHT22;6603;47.066;15.396;2023-02-19T18:46:32;11.50;1.00
13074;DHT22;6603;47.066;15.396;2023-02-19T18:48:57;11.50;1.00
13074;DHT22;6603;47.066;15.396;2023-02-19T18:51:23;11.50;1.00
13074;DHT22;6603;47.066;15.396;2023-02-19T18:53:50;11.40;1.00
13074;DHT22;6603;47.066;15.396;2023-02-19T18:56:15;11.20;1.00
13074;DHT22;6603;47.066;15.396;2023-02-19T18:58:41;11.20;1.00
13074;DHT22;6603;47.066;15.396;2023-02-19T19:01:07;11.40;1.00
13074;DHT22;6603;47.066;15.396;2023-02-19T19:03:32;11.30;1.00
13074;DHT22;6603;47.066;15.396;2023-02-19T19:05:58;11.40;1.00
13074;DHT22;6603;47.066;15.396;2023-02-19T19:08:24;11.30;1.00
13074;DHT22;6603;47.066;15.396;2023-02-19T19:10:50;11.40;1.00
13074;DHT22;6603;47.066;15.396;2023-02-19T19:13:15;11.30;1.00
13074;DHT22;6603;47.066;15.396;2023-02-19T19:15:41;11.30;1.00
13074;DHT22;6603;47.066;15.396;2023-02-19T19:18:09;11.40;1.00
13074;DHT22;6603;47.066;15.396;2023-02-19T19:20:35;11.40;1.00
13074;DHT22;6603;47.066;15.396;2023-02-19T19:23:04;11.40;1.00
13074;DHT22;6603;47.066;15.396;2023-02-19T19:25:30;11.20;1.00
13074;DHT22;6603;47.066;15.396;2023-02-19T19:27:56;11.20;1.00
13074;DHT22;6603;47.066;15.396;2023-02-19T19:30:23;11.30;1.00
13074;DHT22;6603;47.066;15.396;2023-02-19T19:32:50;11.60;1.00